Time;durP1;ratioP1;P1;durP2;ratioP2;P2;SDS_P1;SDS_P2;PMS_P1;PMS_P2;Temp;Humidity;BMP_temperature;BMP_pressure;BME280_temperature;BME280_humidity;BME280_pressure;Samples;Min_cycle;Max_cycle;Signal;HPM_P1;HPM_P2
2024/01/19 03:48:00;;;;;;;19.02;8.07;;;;;;;-1.67;100.00;101398.22;4997205;23;20046;-71
2024/01/19 03:50:25;;;;;;;19.50;8.10;;;;;;;-1.67;100.00;101391.19;4850134;29;20374;-71
2024/01/19 03:52:51;;;;;;;18.08;7.05;;;;;;;-1.63;100.00;101397.28;4854675;29;20052;-73
2024/01/19 03:55:16;;;;;;;19.35;6.82;;;;;;;-1.66;100.00;101399.97;4851905;29;20096;-73
2024/01/19 03:57:42;;;;;;;18.25;6.15;;;;;;;-1.66;100.00;101397.31;4852864;29;20029;-73
2024/01/19 04:00:08;;;;;;;20.13;8.15;;;;;;;-1.67;100.00;101399.09;4852587;29;20113;-73
2024/01/19 04:02:34;;;;;;;21.67;7.78;;;;;;;-1.67;100.00;101398.22;4854025;29;20460;-73
2024/01/19 04:05:00;;;;;;;17.90;7.30;;;;;;;-1.67;100.00;101403.47;4843730;29;20033;-73
2024/01/19 04:07:25;;;;;;;19.58;7.70;;;;;;;-1.70;100.00;101400.88;4849677;29;20116;-73
2024/01/19 04:09:50;;;;;;;21.48;6.90;;;;;;;-1.68;100.00;101413.16;4836723;29;20326;-73
2024/01/19 04:12:17;;;;;;;22.13;7.45;;;;;;;-1.71;100.00;101407.94;4849831;29;20050;-73
2024/01/19 04:14:44;;;;;;;19.10;8.10;;;;;;;-1.71;100.00;101407.03;4852102;29;20029;-73
2024/01/19 04:17:10;;;;;;;20.35;7.82;;;;;;;-1.70;100.00;101414.94;4855911;29;20434;-73
2024/01/19 04:19:36;;;;;;;19.65;8.30;;;;;;;-1.69;100.00;101415.81;4847510;29;20034;-73
2024/01/19 04:22:02;;;;;;;19.77;8.13;;;;;;;-1.70;100.00;101421.97;4846751;29;20133;-73
2024/01/19 04:24:27;;;;;;;24.52;8.88;;;;;;;-1.71;100.00;101433.41;4855468;29;20100;-73
2024/01/19 04:26:52;;;;;;;22.23;8.45;;;;;;;-1.72;100.00;101426.41;4846238;29;20101;-73
2024/01/19 04:29:17;;;;;;;23.13;8.25;;;;;;;-1.70;100.00;101438.66;4833879;29;20037;-73
2024/01/19 04:31:43;;;;;;;21.23;8.40;;;;;;;-1.70;100.00;101435.16;4853523;29;20145;-73
2024/01/19 04:34:08;;;;;;;21.52;8.50;;;;;;;-1.71;100.00;101436.91;4852498;29;20303;-73
2024/01/19 04:36:34;;;;;;;19.58;7.50;;;;;;;-1.73;100.00;101440.47;4851414;29;20056;-73
2024/01/19 04:38:59;;;;;;;19.80;7.75;;;;;;;-1.77;100.00;101437.88;4839292;29;20386;-73
2024/01/19 04:41:24;;;;;;;21.55;8.68;;;;;;;-1.78;100.00;101438.75;4839025;29;20471;-73
2024/01/19 04:43:50;;;;;;;20.27;7.50;;;;;;;-1.77;100.00;101445.78;4843610;29;20036;-73
2024/01/19 04:46:15;;;;;;;20.25;8.70;;;;;;;-1.77;100.00;101450.19;4851290;29;20049;-73
2024/01/19 04:48:40;;;;;;;21.70;8.98;;;;;;;-1.77;100.00;101464.22;4832674;29;20058;-73
2024/01/19 04:51:06;;;;;;;19.85;8.02;;;;;;;-1.78;100.00;101464.25;4833769;29;20025;-73
2024/01/19 04:53:31;;;;;;;20.52;8.38;;;;;;;-1.80;100.00;101463.38;4830342;29;20475;-73
2024/01/19 04:55:57;;;;;;;23.35;9.32;;;;;;;-1.80;100.00;101472.16;4832667;29;20617;-73
2024/01/19 04:58:22;;;;;;;23.23;9.07;;;;;;;-1.81;100.00;101470.41;4832363;29;20063;-73
2024/01/19 05:00:47;;;;;;;24.10;9.13;;;;;;;-1.79;100.00;101466.00;4826199;29;20086;-73
2024/01/19 05:03:13;;;;;;;20.00;8.55;;;;;;;-1.82;100.00;101468.66;4822239;29;20033;-73
2024/01/19 05:05:38;;;;;;;21.63;8.98;;;;;;;-1.86;100.00;101472.25;4827246;29;20079;-71
2024/01/19 05:08:04;;;;;;;18.90;8.57;;;;;;;-1.88;100.00;101468.72;4830215;29;20141;-72
2024/01/19 05:10:31;;;;;;;22.27;9.23;;;;;;;-1.89;100.00;101476.66;4833359;29;22661;-72
2024/01/19 05:12:57;;;;;;;20.35;8.68;;;;;;;-1.90;100.00;101481.06;4834645;29;20102;-71
2024/01/19 05:15:22;;;;;;;23.92;10.43;;;;;;;-1.88;100.00;101483.69;4818161;29;20448;-72
2024/01/19 05:17:47;;;;;;;20.92;8.43;;;;;;;-1.86;100.00;101484.53;4820240;29;20029;-72
2024/01/19 05:20:13;;;;;;;22.58;9.20;;;;;;;-1.86;100.00;101480.16;4832954;29;20054;-72
2024/01/19 05:22:38;;;;;;;21.13;8.77;;;;;;;-1.88;100.00;101484.53;4816536;29;20057;-71
2024/01/19 05:25:03;;;;;;;22.00;9.40;;;;;;;-1.91;100.00;101487.22;4834701;29;20090;-71
2024/01/19 05:27:29;;;;;;;21.85;10.02;;;;;;;-1.93;100.00;101486.38;4817881;29;20034;-72
2024/01/19 05:29:54;;;;;;;20.85;9.30;;;;;;;-1.92;100.00;101490.72;4820064;29;20108;-71
2024/01/19 05:32:19;;;;;;;22.55;10.30;;;;;;;-1.94;100.00;101500.44;4812292;29;20398;-71
2024/01/19 05:34:44;;;;;;;20.63;8.75;;;;;;;-1.96;100.00;101507.47;4815917;29;20071;-72
2024/01/19 05:37:10;;;;;;;21.60;9.23;;;;;;;-1.97;100.00;101509.22;4833048;29;20540;-71
2024/01/19 05:39:35;;;;;;;23.63;10.55;;;;;;;-1.97;100.00;101518.91;4818038;29;20026;-71
2024/01/19 05:42:00;;;;;;;21.15;9.27;;;;;;;-2.01;100.00;101522.44;4832359;29;20549;-71
2024/01/19 05:44:26;;;;;;;22.85;9.30;;;;;;;-2.01;100.00;101530.34;4824672;29;20037;-72
2024/01/19 05:46:51;;;;;;;23.15;10.23;;;;;;;-2.02;100.00;101533.88;4828863;29;20466;-72
2024/01/19 05:49:16;;;;;;;19.58;8.50;;;;;;;-2.01;100.00;101540.88;4831298;29;20129;-71
2024/01/19 05:51:45;;;;;;;24.58;9.73;;;;;;;-1.99;100.00;101547.00;4823286;29;20470;-72
2024/01/19 05:54:11;;;;;;;23.50;9.10;;;;;;;-1.96;100.00;101554.91;4836293;29;20349;-72
2024/01/19 05:56:36;;;;;;;23.08;9.30;;;;;;;-1.92;100.00;101559.22;4846931;29;20037;-71
2024/01/19 05:59:02;;;;;;;21.30;9.35;;;;;;;-1.88;100.00;101568.84;4846728;29;20485;-72
2024/01/19 06:01:27;;;;;;;21.50;9.45;;;;;;;-1.84;100.00;101575.84;4845314;29;20120;-72
2024/01/19 06:03:52;;;;;;;20.65;9.52;;;;;;;-1.82;100.00;101568.78;4822783;29;20037;-71
2024/01/19 06:06:17;;;;;;;23.80;9.65;;;;;;;-1.81;100.00;101580.22;4827302;29;20121;-72
2024/01/19 06:08:43;;;;;;;26.30;10.85;;;;;;;-1.78;100.00;101581.03;4826777;29;20026;-71
2024/01/19 06:11:08;;;;;;;21.63;9.23;;;;;;;-1.74;100.00;101596.81;4826878;29;20041;-73
2024/01/19 06:13:34;;;;;;;27.20;10.98;;;;;;;-1.73;100.00;101609.97;4825097;29;20423;-74
2024/01/19 06:16:01;;;;;;;26.48;10.07;;;;;;;-1.67;100.00;101606.41;4848112;29;20034;-74
2024/01/19 06:18:26;;;;;;;21.77;9.13;;;;;;;-1.63;100.00;101605.50;4843257;29;20030;-74
2024/01/19 06:20:51;;;;;;;22.05;10.18;;;;;;;-1.60;100.00;101610.72;4832503;29;20045;-72
2024/01/19 06:23:17;;;;;;;22.27;10.30;;;;;;;-1.61;100.00;101606.34;4837014;29;20435;-69
2024/01/19 06:25:42;;;;;;;22.27;9.68;;;;;;;-1.58;100.00;101622.16;4845890;29;20021;-69
2024/01/19 06:28:08;;;;;;;22.50;10.15;;;;;;;-1.58;100.00;101628.28;4824812;29;20059;-69
2024/01/19 06:30:33;;;;;;;27.73;9.88;;;;;;;-1.55;100.00;101627.38;4834956;29;20502;-70
2024/01/19 06:32:59;;;;;;;21.42;9.13;;;;;;;-1.52;100.00;101622.09;4820459;29;20049;-69
2024/01/19 06:35:24;;;;;;;27.60;9.18;;;;;;;-1.54;100.00;101629.13;4819161;29;20030;-69
2024/01/19 06:37:50;;;;;;;20.70;8.75;;;;;;;-1.54;100.00;101629.13;4824850;29;20029;-69
2024/01/19 06:40:16;;;;;;;21.02;9.85;;;;;;;-1.55;100.00;101648.47;4822559;29;20073;-71
2024/01/19 06:42:46;;;;;;;23.27;9.85;;;;;;;-1.58;100.00;101659.06;4841977;29;20722;-70
2024/01/19 06:45:11;;;;;;;;;;;;;;;-1.52;100.00;101661.63;4826924;29;20506;-69
2024/01/19 06:47:37;;;;;;;23.23;8.82;;;;;;;-1.64;100.00;101659.97;4820434;29;19976;-69
2024/01/19 06:50:03;;;;;;;23.20;10.02;;;;;;;-1.68;100.00;101652.13;4824473;29;20152;-69
2024/01/19 06:52:29;;;;;;;22.58;9.05;;;;;;;-1.73;100.00;101651.28;4809847;29;20041;-70
2024/01/19 06:54:54;;;;;;;21.27;8.98;;;;;;;-1.77;100.00;101651.31;4818560;29;20034;-69
2024/01/19 06:57:19;;;;;;;20.02;8.25;;;;;;;-1.79;100.00;101652.22;4820976;29;20034;-70
2024/01/19 06:59:45;;;;;;;21.65;9.55;;;;;;;-1.82;100.00;101660.13;4817044;29;20034;-69
2024/01/19 07:02:11;;;;;;;19.65;8.48;;;;;;;-1.87;100.00;101670.72;4818748;29;20049;-70
2024/01/19 07:04:36;;;;;;;20.20;8.55;;;;;;;-1.89;100.00;101675.13;4820596;29;20042;-70
2024/01/19 07:07:01;;;;;;;20.60;9.05;;;;;;;-1.92;100.00;101683.03;4814810;29;20402;-69
2024/01/19 07:09:27;;;;;;;23.10;8.70;;;;;;;-1.95;100.00;101681.34;4803218;29;20027;-71
2024/01/19 07:11:53;;;;;;;19.77;8.82;;;;;;;-1.99;100.00;101689.25;4802890;29;20567;-69
2024/01/19 07:14:18;;;;;;;22.30;9.32;;;;;;;-1.97;100.00;101692.75;4814091;29;20054;-69
2024/01/19 07:16:43;;;;;;;19.92;8.68;;;;;;;-1.97;100.00;101684.88;4813029;29;20525;-69
2024/01/19 07:19:12;;;;;;;20.63;9.63;;;;;;;-1.99;100.00;101698.03;4800061;29;20026;-69
2024/01/19 07:21:38;;;;;;;23.45;9.70;;;;;;;-2.01;100.00;101702.44;4803800;29;20066;-69
2024/01/19 07:24:05;;;;;;;21.17;9.63;;;;;;;-1.99;100.00;101702.41;4807156;29;20089;-71
2024/01/19 07:26:30;;;;;;;23.52;10.48;;;;;;;-2.04;100.00;101710.38;4802541;29;20026;-69
2024/01/19 07:28:56;;;;;;;20.73;9.43;;;;;;;-2.05;100.00;101703.38;4812419;29;20098;-69
2024/01/19 07:31:21;;;;;;;20.10;8.57;;;;;;;-2.06;100.00;101711.28;4813030;29;20072;-72
2024/01/19 07:33:46;;;;;;;21.23;9.13;;;;;;;-2.06;100.00;101703.38;4809805;29;20061;-69
2024/01/19 07:36:15;;;;;;;23.10;9.35;;;;;;;-2.08;100.00;101702.50;4809484;29;20022;-70
2024/01/19 07:38:40;;;;;;;24.85;10.27;;;;;;;-2.07;100.00;101709.53;4795362;29;20117;-69
2024/01/19 07:41:06;;;;;;;20.95;9.05;;;;;;;-2.09;100.00;101709.53;4818686;29;20109;-70
2024/01/19 07:43:31;;;;;;;25.85;8.80;;;;;;;-2.09;100.00;101711.28;4803071;29;20129;-70
2024/01/19 07:45:56;;;;;;;22.88;9.25;;;;;;;-2.09;100.00;101717.44;4806114;29;20681;-70
2024/01/19 07:48:22;;;;;;;21.38;8.95;;;;;;;-2.07;100.00;101725.31;4831613;29;20053;-69
2024/01/19 07:50:47;;;;;;;23.40;9.88;;;;;;;-2.09;100.00;101721.81;4836354;29;20449;-69
2024/01/19 07:53:12;;;;;;;23.77;8.80;;;;;;;-2.09;100.00;101737.59;4834976;29;20032;-70
2024/01/19 07:55:38;;;;;;;25.90;9.57;;;;;;;-2.06;100.00;101735.00;4817385;29;20129;-70
2024/01/19 07:58:03;;;;;;;23.52;9.85;;;;;;;-2.00;100.00;101737.56;4817978;29;20026;-69
2024/01/19 08:00:28;;;;;;;20.48;9.20;;;;;;;-2.01;100.00;101747.22;4836703;29;20545;-70
2024/01/19 08:02:54;;;;;;;27.17;9.35;;;;;;;-1.96;100.00;101749.84;4823422;29;20064;-69
2024/01/19 08:05:19;;;;;;;22.48;9.73;;;;;;;-1.95;100.00;101743.66;4834426;29;20032;-69
2024/01/19 08:07:44;;;;;;;20.77;9.02;;;;;;;-1.92;100.00;101750.69;4822188;29;20409;-69
2024/01/19 08:10:11;;;;;;;21.48;8.50;;;;;;;-1.94;100.00;101759.47;4833242;29;20041;-69
2024/01/19 08:12:36;;;;;;;23.67;8.60;;;;;;;-1.95;100.00;101765.63;4822076;29;20362;-69
2024/01/19 08:15:01;;;;;;;22.90;9.48;;;;;;;-1.94;100.00;101769.13;4826907;29;20030;-70
2024/01/19 08:17:26;;;;;;;25.23;9.82;;;;;;;-1.96;100.00;101770.91;4830973;29;20082;-69
2024/01/19 08:19:52;;;;;;;19.63;8.18;;;;;;;-1.95;100.00;101776.19;4832030;29;20506;-69
2024/01/19 08:22:17;;;;;;;21.10;8.70;;;;;;;-1.96;100.00;101786.72;4834193;29;20030;-72
2024/01/19 08:24:43;;;;;;;23.70;9.30;;;;;;;-1.95;100.00;101777.91;4832302;29;20596;-70
2024/01/19 08:27:08;;;;;;;21.00;9.55;;;;;;;-1.95;100.00;101791.97;4833995;29;20032;-69
2024/01/19 08:29:33;;;;;;;19.73;8.13;;;;;;;-1.96;100.00;101784.97;4832853;29;20045;-69
2024/01/19 08:31:59;;;;;;;21.10;8.38;;;;;;;-1.96;100.00;101789.38;4834790;29;20030;-69
2024/01/19 08:34:24;;;;;;;21.92;8.02;;;;;;;-1.97;100.00;101783.19;4831189;29;20041;-69
2024/01/19 08:36:50;;;;;;;19.80;8.45;;;;;;;-1.98;100.00;101783.22;4838091;29;20022;-69
2024/01/19 08:39:15;;;;;;;22.05;9.38;;;;;;;-1.98;100.00;101786.75;4820242;29;20114;-69
2024/01/19 08:41:44;;;;;;;21.30;9.05;;;;;;;-1.99;100.00;101795.50;4836325;29;20166;-74
2024/01/19 08:44:10;;;;;;;19.52;7.50;;;;;;;-1.99;100.00;101790.25;4838097;29;20045;-73
2024/01/19 08:46:42;;;;;;;21.27;9.98;;;;;;;-1.94;100.00;101795.47;4825339;29;20022;-74
2024/01/19 08:49:07;;;;;;;20.63;8.90;;;;;;;-1.92;100.00;101798.97;4836674;29;20030;-74
2024/01/19 08:51:32;;;;;;;19.55;8.50;;;;;;;-1.89;100.00;101792.81;4817744;29;20025;-74
2024/01/19 08:53:58;;;;;;;17.92;7.50;;;;;;;-1.85;100.00;101802.44;4828280;29;20268;-74
2024/01/19 08:56:23;;;;;;;20.20;7.85;;;;;;;-1.82;100.00;101800.66;4826914;29;20026;-74
2024/01/19 08:58:49;;;;;;;20.85;8.52;;;;;;;-1.79;100.00;101805.94;4824266;29;20034;-74
2024/01/19 09:01:20;;;;;;;22.00;8.52;;;;;;;-1.73;100.00;101810.25;4819419;29;20023;-74
2024/01/19 09:03:46;;;;;;;16.77;6.68;;;;;;;-1.70;100.00;101817.28;4818102;29;20109;-73
2024/01/19 09:06:11;;;;;;;22.55;7.53;;;;;;;-1.64;100.00;101826.03;4817896;29;20037;-74
2024/01/19 09:08:41;;;;;;;19.27;6.95;;;;;;;-1.62;100.00;101823.38;4830882;29;20197;-74
2024/01/19 09:11:06;;;;;;;19.13;7.03;;;;;;;-1.58;100.00;101828.63;4829245;29;20089;-72
2024/01/19 09:13:31;;;;;;;20.90;7.25;;;;;;;-1.55;100.00;101833.00;4827009;29;20116;-74
2024/01/19 09:15:57;;;;;;;17.92;7.05;;;;;;;-1.50;100.00;101831.19;4815569;29;20449;-74
2024/01/19 09:18:22;;;;;;;17.90;7.38;;;;;;;-1.44;100.00;101839.06;4831744;29;20068;-74
2024/01/19 09:20:47;;;;;;;17.27;6.93;;;;;;;-1.39;100.00;101840.78;4829156;29;20034;-74
2024/01/19 09:23:13;;;;;;;19.00;7.35;;;;;;;-1.34;100.00;101844.28;4819200;29;20513;-74
2024/01/19 09:25:39;;;;;;;19.88;7.38;;;;;;;-1.30;100.00;101857.41;4819824;29;20301;-74
2024/01/19 09:28:04;;;;;;;21.42;6.90;;;;;;;-1.26;100.00;101852.97;4831776;29;20069;-74
2024/01/19 09:30:29;;;;;;;19.23;7.70;;;;;;;-1.22;100.00;101860.00;4816440;29;20030;-74
2024/01/19 09:32:55;;;;;;;21.30;8.32;;;;;;;-1.20;100.00;101868.78;4831043;29;20045;-73
2024/01/19 09:35:20;;;;;;;18.20;7.32;;;;;;;-1.17;100.00;101870.50;4827778;29;20502;-74
2024/01/19 09:37:45;;;;;;;19.50;7.45;;;;;;;-1.13;100.00;101870.50;4832736;29;20045;-75
2024/01/19 09:40:12;;;;;;;22.27;7.70;;;;;;;-1.11;100.00;101875.75;4815198;29;20059;-74
2024/01/19 09:42:39;;;;;;;18.83;7.57;;;;;;;-1.06;100.00;101876.56;4817806;29;20046;-74
2024/01/19 09:45:05;;;;;;;19.17;8.38;;;;;;;-1.01;100.00;101876.53;4834063;29;20041;-75
2024/01/19 09:47:56;;;;;;;22.75;9.48;;;;;;;-0.99;100.00;101882.69;4826692;29;20085;-74
2024/01/19 09:50:26;;;;;;;22.80;9.20;;;;;;;-0.93;100.00;101885.25;4818000;29;20455;-75
2024/01/19 09:53:00;;;;;;;18.70;8.43;;;;;;;-0.89;100.00;101889.63;4832874;29;20302;-72
2024/01/19 09:55:27;;;;;;;18.67;8.25;;;;;;;-0.85;100.00;101895.75;4846059;29;20034;-72
2024/01/19 09:57:54;;;;;;;20.30;8.85;;;;;;;-0.81;100.00;101900.13;4847049;29;20042;-70
2024/01/19 10:00:20;;;;;;;24.67;8.77;;;;;;;-0.77;100.00;101905.34;4841339;29;20026;-73
2024/01/19 10:02:48;;;;;;;21.38;7.85;;;;;;;-0.74;100.00;101913.22;4833208;29;20021;-73
2024/01/19 10:05:15;;;;;;;26.02;10.40;;;;;;;-0.67;100.00;101915.81;4821595;29;20094;-73
2024/01/19 10:07:43;;;;;;;19.90;9.13;;;;;;;-0.61;100.00;101919.28;4840320;29;20074;-72
2024/01/19 10:10:09;;;;;;;26.77;9.27;;;;;;;-0.58;100.00;101916.59;4825007;29;20602;-73
2024/01/19 10:12:37;;;;;;;21.95;9.35;;;;;;;-0.54;100.00;101923.63;4844255;29;20081;-73
2024/01/19 10:15:03;;;;;;;23.88;8.77;;;;;;;-0.49;100.00;101920.91;4824581;29;20038;-72
2024/01/19 10:17:29;;;;;;;22.88;8.02;;;;;;;-0.46;100.00;101915.59;4833311;29;20297;-73
2024/01/19 10:19:57;;;;;;;21.27;9.52;;;;;;;-0.43;100.00;101923.50;4815395;29;20311;-73
2024/01/19 10:22:27;;;;;;;21.48;8.65;;;;;;;-0.40;100.00;101912.88;4830386;29;20087;-73
2024/01/19 10:25:03;;;;;;;23.75;8.90;;;;;;;-0.34;100.00;101919.00;4828970;29;20090;-73
2024/01/19 10:27:53;;;;;;;19.95;8.55;;;;;;;-0.26;100.00;101927.75;4809819;29;20034;-72
2024/01/19 10:30:23;;;;;;;23.25;9.70;;;;;;;-0.22;100.00;101937.38;4837104;29;20417;-70
2024/01/19 10:32:51;;;;;;;23.27;9.75;;;;;;;-0.17;100.00;101932.91;4824984;29;20181;-72
2024/01/19 10:35:21;;;;;;;24.38;9.25;;;;;;;-0.12;100.00;101930.22;4840426;29;20042;-73
2024/01/19 10:37:47;;;;;;;;;;;;;;;-0.06;100.00;101933.69;4845862;29;20541;-73
2024/01/19 10:40:21;;;;;;;23.40;8.82;;;;;;;-0.02;100.00;101932.72;4845021;29;19916;-72
2024/01/19 10:42:53;;;;;;;19.77;8.55;;;;;;;0.03;100.00;101934.44;4844970;29;20094;-73
2024/01/19 10:45:21;;;;;;;23.35;8.77;;;;;;;0.05;100.00;101933.53;4850086;29;20074;-73
2024/01/19 10:47:48;;;;;;;22.33;8.90;;;;;;;0.10;100.00;101936.13;4835322;29;21029;-73
2024/01/19 10:50:15;;;;;;;19.17;8.50;;;;;;;0.12;100.00;101926.44;4846091;29;20022;-73
2024/01/19 10:52:42;;;;;;;24.20;10.98;;;;;;;0.15;100.00;101929.88;4847835;29;20238;-73
2024/01/19 10:55:09;;;;;;;22.33;10.20;;;;;;;0.19;100.00;101941.31;4834368;29;20085;-74
2024/01/19 10:57:34;;;;;;;22.77;10.18;;;;;;;0.21;100.00;101928.94;4831346;29;20156;-74
2024/01/19 11:00:17;;;;;;;22.95;10.23;;;;;;;0.25;100.00;101930.66;4827260;29;20106;-74
2024/01/19 11:02:49;;;;;;;26.52;9.98;;;;;;;0.28;100.00;101929.72;4843537;29;20100;-73
2024/01/19 11:05:18;;;;;;;24.67;10.73;;;;;;;0.33;100.00;101925.25;4842706;29;20408;-73
2024/01/19 11:07:43;;;;;;;23.92;10.65;;;;;;;0.33;100.00;101926.13;4825601;29;20053;-74
2024/01/19 11:10:08;;;;;;;21.88;10.07;;;;;;;0.38;100.00;101931.38;4842032;29;20045;-73
2024/01/19 11:12:38;;;;;;;24.88;10.90;;;;;;;0.42;100.00;101932.19;4828464;29;20049;-73
2024/01/19 11:15:09;;;;;;;23.90;12.63;;;;;;;0.42;100.00;101935.72;4844855;29;20034;-73
2024/01/19 11:17:35;;;;;;;28.55;11.30;;;;;;;0.43;100.00;101932.19;4824092;29;20034;-73
2024/01/19 11:20:01;;;;;;;27.45;12.25;;;;;;;0.44;100.00;101925.09;4845660;29;20042;-74
2024/01/19 11:22:26;;;;;;;24.48;11.32;;;;;;;0.47;100.00;101930.34;4845549;29;20102;-74
2024/01/19 11:24:56;;;;;;;23.95;11.95;;;;;;;0.50;100.00;101927.69;4841203;29;20066;-73
2024/01/19 11:27:30;;;;;;;26.73;12.55;;;;;;;0.53;100.00;101922.34;4826943;29;20334;-72
2024/01/19 11:30:09;;;;;;;24.17;12.98;;;;;;;0.56;100.00;101919.66;4845784;29;20033;-74
2024/01/19 11:32:34;;;;;;;22.88;10.77;;;;;;;0.59;100.00;101921.41;4831147;29;20029;-72
2024/01/19 11:34:59;;;;;;;23.05;11.68;;;;;;;0.61;100.00;101928.38;4844249;29;20091;-73
2024/01/19 11:37:45;;;;;;;24.20;12.55;;;;;;;0.68;100.00;101929.19;4843570;29;20118;-73
2024/01/19 11:40:36;;;;;;;22.98;11.80;;;;;;;0.72;100.00;101935.28;4841726;29;20101;-74
2024/01/19 11:43:03;;;;;;;24.75;11.88;;;;;;;0.75;100.00;101933.50;4845777;29;20054;-73
2024/01/19 11:45:28;;;;;;;25.00;11.35;;;;;;;0.78;100.00;101937.88;4829568;29;20456;-73
2024/01/19 11:47:56;;;;;;;24.23;11.55;;;;;;;0.82;100.00;101940.44;4835567;29;20225;-74
2024/01/19 11:50:43;;;;;;;26.60;11.30;;;;;;;0.87;100.00;101943.00;4842102;29;20045;-74
2024/01/19 11:53:09;;;;;;;25.83;11.50;;;;;;;0.87;100.00;101935.94;4842604;29;20089;-74
2024/01/19 11:55:36;;;;;;;24.23;12.27;;;;;;;0.91;100.00;101936.78;4829381;29;20125;-72
2024/01/19 11:58:30;;;;;;;23.92;12.38;;;;;;;0.95;100.00;101942.88;4842929;29;20113;-74
2024/01/19 12:00:57;;;;;;;25.80;11.43;;;;;;;0.99;100.00;101940.16;4828160;29;20431;-73
2024/01/19 12:03:23;;;;;;;22.33;10.85;;;;;;;1.01;100.00;101946.31;4839016;29;20026;-73
2024/01/19 12:05:50;;;;;;;22.77;11.70;;;;;;;1.01;100.00;101941.03;4841085;29;20034;-72
2024/01/19 12:08:16;;;;;;;23.38;11.57;;;;;;;1.06;100.00;101946.25;4829276;29;20713;-73
2024/01/19 12:10:44;;;;;;;25.92;12.60;;;;;;;1.11;100.00;101948.81;4838504;29;20040;-73
2024/01/19 12:13:11;;;;;;;23.10;11.50;;;;;;;1.13;100.00;101949.66;4844486;29;20105;-74
2024/01/19 12:15:39;;;;;;;21.23;10.27;;;;;;;1.16;100.00;101954.94;4838562;29;20030;-73
2024/01/19 12:18:05;;;;;;;23.85;10.77;;;;;;;1.20;100.00;101952.19;4841821;29;20029;-73
2024/01/19 12:20:30;;;;;;;24.85;11.70;;;;;;;1.23;100.00;101956.59;4842720;29;20038;-73
2024/01/19 12:22:56;;;;;;;25.17;11.30;;;;;;;1.24;100.00;101952.16;4841285;29;20089;-73
2024/01/19 12:25:24;;;;;;;26.63;12.05;;;;;;;1.29;100.00;101959.13;4831257;29;20029;-72
2024/01/19 12:28:00;;;;;;;24.65;11.13;;;;;;;1.32;100.00;101953.78;4829226;29;20483;-74
2024/01/19 12:30:29;;;;;;;24.25;11.00;;;;;;;1.37;100.00;101956.34;4842776;29;20038;-74
2024/01/19 12:32:54;;;;;;;23.58;11.40;;;;;;;1.39;100.00;101959.81;4843548;29;20041;-72
2024/01/19 12:35:20;;;;;;;24.90;10.75;;;;;;;1.43;100.00;101947.41;4838498;29;20030;-73
2024/01/19 12:37:45;;;;;;;22.98;10.60;;;;;;;1.46;100.00;101957.94;4837371;29;20044;-73
2024/01/19 12:40:11;;;;;;;24.98;10.27;;;;;;;1.49;100.00;101948.16;4828264;29;20042;-73
2024/01/19 12:42:36;;;;;;;23.10;10.45;;;;;;;1.51;100.00;101949.03;4842157;29;20458;-72
2024/01/19 12:45:03;;;;;;;29.08;12.93;;;;;;;1.55;100.00;101957.78;4829728;29;20033;-73
2024/01/19 12:47:28;;;;;;;28.00;11.90;;;;;;;1.59;100.00;101958.63;4844745;29;20042;-72
2024/01/19 12:49:57;;;;;;;26.95;11.27;;;;;;;1.64;100.00;101956.72;4839400;29;20057;-73
2024/01/19 12:52:22;;;;;;;25.07;10.87;;;;;;;1.67;100.00;101959.31;4839320;29;20021;-73
2024/01/19 12:54:48;;;;;;;24.52;10.68;;;;;;;1.68;100.00;101954.00;4826702;29;20348;-74
2024/01/19 12:57:17;;;;;;;28.65;10.90;;;;;;;1.71;100.00;101963.69;4846256;29;20078;-73
2024/01/19 12:59:43;;;;;;;23.52;11.25;;;;;;;1.74;100.00;101961.84;4828780;29;20497;-74
2024/01/19 13:02:11;;;;;;;22.55;10.57;;;;;;;1.78;100.00;101964.44;4846142;29;20029;-73
2024/01/19 13:04:37;;;;;;;22.90;9.95;;;;;;;1.81;100.00;101962.59;4843015;29;20308;-74
2024/01/19 13:07:03;;;;;;;23.35;11.18;;;;;;;1.83;100.00;101959.91;4828523;29;20891;-73
2024/01/19 13:09:28;;;;;;;23.67;11.13;;;;;;;1.88;100.00;101960.72;4844157;29;20026;-73
2024/01/19 13:12:11;;;;;;;24.50;10.20;;;;;;;1.91;100.00;101968.63;4844352;29;20073;-73
2024/01/19 13:14:36;;;;;;;21.63;10.25;;;;;;;1.93;100.00;101966.78;4827792;29;20022;-73
2024/01/19 13:17:05;;;;;;;28.40;11.07;;;;;;;1.96;100.00;101966.72;4827534;29;20572;-74
2024/01/19 13:19:30;;;;;;;22.92;10.20;;;;;;;2.00;100.00;101973.72;4828453;29;20022;-74
2024/01/19 13:21:56;;;;;;;24.33;10.88;;;;;;;2.00;100.00;101972.88;4825601;29;20045;-75
2024/01/19 13:24:24;;;;;;;24.30;10.23;;;;;;;2.03;100.00;101971.00;4836034;29;20033;-73
2024/01/19 13:26:59;;;;;;;25.33;10.88;;;;;;;2.05;100.00;101979.84;4838056;29;20355;-75
2024/01/19 13:29:24;;;;;;;26.67;11.95;;;;;;;2.04;100.00;101986.03;4835127;29;20030;-76
2024/01/19 13:31:50;;;;;;;21.77;10.82;;;;;;;2.05;100.00;101981.59;4837571;29;20096;-76
2024/01/19 13:34:15;;;;;;;26.35;12.13;;;;;;;2.04;100.00;101986.03;4819230;29;20471;-75
2024/01/19 13:36:41;;;;;;;24.42;11.98;;;;;;;2.04;100.00;101991.34;4837057;29;20034;-75
2024/01/19 13:39:07;;;;;;;26.05;12.43;;;;;;;2.05;100.00;101990.44;4833411;29;20081;-75
2024/01/19 13:41:32;;;;;;;27.80;12.43;;;;;;;2.04;100.00;101999.28;4840215;29;20030;-75
2024/01/19 13:43:57;;;;;;;25.90;12.95;;;;;;;2.03;100.00;101989.56;4838532;29;20394;-75
2024/01/19 13:46:22;;;;;;;23.63;11.50;;;;;;;2.03;100.00;101989.56;4834984;29;20093;-75
2024/01/19 13:48:48;;;;;;;23.60;12.18;;;;;;;2.04;100.00;101999.28;4825593;29;20050;-74
2024/01/19 13:51:13;;;;;;;28.23;12.48;;;;;;;2.02;100.00;101986.94;4827527;29;20048;-75
2024/01/19 13:53:39;;;;;;;26.95;12.75;;;;;;;2.00;100.00;101994.06;4833349;29;20462;-75
2024/01/19 13:56:04;;;;;;;25.50;11.88;;;;;;;1.96;100.00;101992.38;4819747;29;20026;-75
2024/01/19 13:58:29;;;;;;;27.27;13.15;;;;;;;1.94;100.00;101995.06;4826731;29;20029;-75
2024/01/19 14:00:55;;;;;;;27.52;13.27;;;;;;;1.91;100.00;102005.72;4829529;29;20042;-75
2024/01/19 14:03:20;;;;;;;24.80;12.88;;;;;;;1.91;100.00;102013.69;4833182;29;20346;-76
2024/01/19 14:05:47;;;;;;;23.52;11.98;;;;;;;1.90;100.00;102015.47;4839212;29;20068;-75
2024/01/19 14:08:14;;;;;;;25.27;13.05;;;;;;;1.89;100.00;102015.50;4837179;29;20033;-75
2024/01/19 14:10:40;;;;;;;26.65;12.25;;;;;;;1.89;100.00;102018.16;4817432;29;20042;-73
2024/01/19 14:13:05;;;;;;;25.85;13.18;;;;;;;1.88;100.00;102016.41;4833552;29;20060;-75
2024/01/19 14:15:31;;;;;;;27.52;12.80;;;;;;;1.88;100.00;102027.00;4837258;29;20092;-75
2024/01/19 14:17:56;;;;;;;25.67;13.32;;;;;;;1.87;100.00;102026.09;4838107;29;20033;-75
2024/01/19 14:20:21;;;;;;;28.67;13.05;;;;;;;1.87;100.00;102030.53;4836757;29;20060;-75
2024/01/19 14:22:47;;;;;;;26.55;12.98;;;;;;;1.88;100.00;102033.16;4825758;29;20125;-75
2024/01/19 14:25:12;;;;;;;27.67;14.05;;;;;;;1.87;100.00;102035.84;4837285;29;20030;-75
2024/01/19 14:27:40;;;;;;;26.50;13.35;;;;;;;1.86;100.00;102031.44;4838958;29;20072;-76
2024/01/19 14:30:06;;;;;;;24.00;11.55;;;;;;;1.82;100.00;102033.28;4821843;29;20041;-76
2024/01/19 14:32:31;;;;;;;26.60;14.48;;;;;;;1.82;100.00;102030.63;4832289;29;20498;-75
2024/01/19 14:34:57;;;;;;;28.02;14.02;;;;;;;1.82;100.00;102035.06;4837016;29;20079;-76
2024/01/19 14:37:22;;;;;;;30.20;13.93;;;;;;;1.81;100.00;102042.13;4830718;29;20050;-76
2024/01/19 14:39:48;;;;;;;28.60;14.52;;;;;;;1.79;100.00;102041.28;4836257;29;20253;-75
2024/01/19 14:42:13;;;;;;;27.27;14.05;;;;;;;1.75;100.00;102036.94;4834047;29;20056;-75
2024/01/19 14:44:38;;;;;;;26.80;13.63;;;;;;;1.73;100.00;102044.06;4836514;29;20038;-74
2024/01/19 14:47:04;;;;;;;26.38;13.93;;;;;;;1.70;100.00;102039.66;4820530;29;20076;-74
2024/01/19 14:49:31;;;;;;;28.20;14.35;;;;;;;1.67;100.00;102044.13;4821477;29;20077;-75
2024/01/19 14:51:58;;;;;;;27.25;13.70;;;;;;;1.65;100.00;102049.47;4837562;29;20034;-75
2024/01/19 14:54:27;;;;;;;26.40;14.48;;;;;;;1.61;100.00;102054.84;4830784;29;20490;-75